createdAt,value
2023-03-18T00:02:46.854Z,637.00
2023-03-18T00:06:46.832Z,637.00
2023-03-18T00:10:47.080Z,629.00
2023-03-18T00:14:46.746Z,625.00
2023-03-18T00:18:46.650Z,630.00
2023-03-18T00:22:46.700Z,629.00
2023-03-18T00:26:46.597Z,634.00
2023-03-18T00:30:46.595Z,630.00
2023-03-18T00:34:46.547Z,629.00
2023-03-18T00:38:46.538Z,630.00
2023-03-18T00:42:46.515Z,633.00
2023-03-18T00:46:46.500Z,635.00
2023-03-18T00:50:46.610Z,630.00
2023-03-18T00:54:46.786Z,629.00
2023-03-18T00:58:47.686Z,628.00
2023-03-18T01:02:46.995Z,629.00
2023-03-18T01:06:47.111Z,630.00
2023-03-18T01:10:47.204Z,634.00
2023-03-18T01:14:47.272Z,628.00
2023-03-18T01:18:47.267Z,627.00
2023-03-18T01:22:47.410Z,628.00
2023-03-18T01:26:47.469Z,628.00
2023-03-18T01:30:47.506Z,631.00
2023-03-18T01:34:48.132Z,629.00
2023-03-18T01:38:47.558Z,626.00
2023-03-18T01:42:47.490Z,623.00
2023-03-18T01:46:47.596Z,624.00
2023-03-18T01:50:47.571Z,619.00
2023-03-18T01:54:47.602Z,623.00
2023-03-18T01:58:47.584Z,623.00
2023-03-18T02:02:47.691Z,623.00
2023-03-18T02:06:47.664Z,621.00
2023-03-18T02:10:47.741Z,624.00
2023-03-18T02:14:47.759Z,621.00
2023-03-18T02:18:47.769Z,616.00
2023-03-18T02:22:47.804Z,620.00
2023-03-18T02:26:47.832Z,617.00
2023-03-18T02:30:47.889Z,613.00
2023-03-18T02:34:47.879Z,614.00
2023-03-18T02:38:47.864Z,614.00
2023-03-18T02:42:47.835Z,613.00
2023-03-18T02:46:47.793Z,610.00
2023-03-18T02:50:47.813Z,612.00
2023-03-18T02:54:47.842Z,607.00
2023-03-18T02:58:48.323Z,612.00
2023-03-18T03:02:47.853Z,607.00
2023-03-18T03:06:47.749Z,605.00
2023-03-18T03:10:47.717Z,604.00
2023-03-18T03:14:47.748Z,608.00
2023-03-18T03:18:47.728Z,604.00
2023-03-18T03:22:47.706Z,606.00
2023-03-18T03:26:47.758Z,607.00
2023-03-18T03:30:47.681Z,607.00
2023-03-18T03:34:47.715Z,602.00
2023-03-18T03:38:47.633Z,610.00
2023-03-18T03:42:49.242Z,607.00
2023-03-18T03:46:47.685Z,607.00
2023-03-18T03:50:47.720Z,609.00
2023-03-18T03:54:47.689Z,610.00
2023-03-18T03:58:47.602Z,607.00
2023-03-18T04:02:47.588Z,611.00
2023-03-18T04:06:47.586Z,608.00
2023-03-18T04:10:47.551Z,606.00
2023-03-18T04:14:50.770Z,604.00
2023-03-18T04:18:48.257Z,606.00
2023-03-18T04:22:47.491Z,606.00
2023-03-18T04:26:47.467Z,604.00
2023-03-18T04:30:47.357Z,607.00
2023-03-18T04:34:47.388Z,609.00
2023-03-18T04:38:47.299Z,610.00
2023-03-18T04:42:47.274Z,606.00
2023-03-18T04:46:47.297Z,606.00
2023-03-18T04:50:47.218Z,609.00
2023-03-18T04:54:47.195Z,608.00
2023-03-18T04:58:47.138Z,603.00
2023-03-18T05:02:47.085Z,609.00
2023-03-18T05:06:47.112Z,603.00
2023-03-18T05:10:47.027Z,600.00
2023-03-18T05:14:47.053Z,600.00
2023-03-18T05:18:47.177Z,603.00
2023-03-18T05:22:46.953Z,603.00
2023-03-18T05:26:46.891Z,600.00
2023-03-18T05:30:46.841Z,599.00
2023-03-18T05:34:46.862Z,600.00
2023-03-18T05:38:46.763Z,599.00
2023-03-18T05:42:55.895Z,598.00
2023-03-18T05:46:47.754Z,602.00
2023-03-18T05:50:46.738Z,599.00
2023-03-18T05:54:46.712Z,605.00
2023-03-18T05:58:46.638Z,605.00
2023-03-18T06:02:46.574Z,603.00
2023-03-18T06:06:46.592Z,601.00
2023-03-18T06:10:46.606Z,607.00
2023-03-18T06:14:46.632Z,602.00
2023-03-18T06:18:46.709Z,598.00
2023-03-18T06:22:46.674Z,601.00
2023-03-18T06:26:46.694Z,600.00
2023-03-18T06:30:46.798Z,603.00
2023-03-18T06:34:46.745Z,604.00
2023-03-18T06:38:46.782Z,606.00
2023-03-18T06:42:46.840Z,604.00
2023-03-18T06:46:46.707Z,600.00
2023-03-18T06:50:46.736Z,602.00
2023-03-18T06:54:46.751Z,604.00
2023-03-18T06:58:46.729Z,606.00
2023-03-18T07:02:46.694Z,607.00
2023-03-18T07:06:46.668Z,605.00
2023-03-18T07:10:46.639Z,606.00
2023-03-18T07:14:46.611Z,606.00
2023-03-18T07:18:46.691Z,606.00
2023-03-18T07:22:46.818Z,605.00
2023-03-18T07:26:46.946Z,603.00
2023-03-18T07:30:47.270Z,602.00
2023-03-18T07:34:47.249Z,604.00
2023-03-18T07:38:47.094Z,605.00
2023-03-18T07:42:46.991Z,596.00
2023-03-18T07:46:47.024Z,600.00
2023-03-18T07:50:46.924Z,601.00
2023-03-18T07:54:46.900Z,595.00
2023-03-18T07:58:46.861Z,598.00
2023-03-18T08:02:46.845Z,595.00
2023-03-18T08:06:46.805Z,589.00
2023-03-18T08:10:46.741Z,590.00
2023-03-18T08:14:46.915Z,593.00
2023-03-18T08:18:47.141Z,593.00
2023-03-18T08:22:47.327Z,590.00
2023-03-18T08:26:47.545Z,588.00
2023-03-18T08:30:47.724Z,590.00
2023-03-18T08:34:47.911Z,591.00
2023-03-18T08:38:48.129Z,589.00
2023-03-18T08:42:48.277Z,588.00
2023-03-18T08:46:48.424Z,588.00
2023-03-18T08:50:48.612Z,586.00
2023-03-18T08:54:48.810Z,587.00
2023-03-18T08:58:49.024Z,586.00
2023-03-18T09:02:49.197Z,584.00
2023-03-18T09:06:49.314Z,585.00
2023-03-18T09:10:49.494Z,582.00
2023-03-18T09:14:49.760Z,584.00
2023-03-18T09:18:49.861Z,590.00
2023-03-18T09:22:50.025Z,587.00
2023-03-18T09:26:50.147Z,585.00
2023-03-18T09:30:50.838Z,581.00
2023-03-18T09:34:50.499Z,578.00
2023-03-18T09:38:50.631Z,577.00
2023-03-18T09:42:50.787Z,576.00
2023-03-18T09:46:51.014Z,575.00
2023-03-18T09:50:51.083Z,575.00
2023-03-18T09:54:51.284Z,577.00
2023-03-18T09:58:51.438Z,581.00
2023-03-18T10:02:51.635Z,578.00
2023-03-18T10:06:51.783Z,577.00
2023-03-18T10:10:54.788Z,576.00
2023-03-18T10:14:51.902Z,579.00
2023-03-18T10:18:51.900Z,583.00
2023-03-18T10:22:51.871Z,583.00
2023-03-18T10:26:51.817Z,582.00
2023-03-18T10:30:51.805Z,588.00
2023-03-18T10:34:51.804Z,584.00
2023-03-18T10:38:51.853Z,584.00
2023-03-18T10:42:51.707Z,582.00
2023-03-18T10:46:51.754Z,582.00
2023-03-18T10:50:51.629Z,581.00
2023-03-18T10:54:51.615Z,580.00
2023-03-18T10:58:51.564Z,581.00
2023-03-18T11:02:51.689Z,576.00
2023-03-18T11:06:51.992Z,574.00
2023-03-18T11:10:52.122Z,573.00
2023-03-18T11:14:52.301Z,572.00
2023-03-18T11:18:52.444Z,569.00
2023-03-18T11:22:52.698Z,572.00
2023-03-18T11:26:52.868Z,575.00
2023-03-18T11:30:53.426Z,574.00
2023-03-18T11:34:53.279Z,575.00
2023-03-18T11:38:53.501Z,581.00
2023-03-18T11:42:53.742Z,581.00
2023-03-18T11:46:54.001Z,576.00
2023-03-18T11:50:54.850Z,573.00
2023-03-18T11:54:54.499Z,569.00
2023-03-18T11:58:54.643Z,568.00
2023-03-18T12:02:54.880Z,565.00
2023-03-18T12:06:55.105Z,563.00
2023-03-18T12:10:55.317Z,566.00
2023-03-18T12:14:55.433Z,567.00
2023-03-18T12:18:55.737Z,560.00
2023-03-18T12:22:55.695Z,560.00
2023-03-18T12:26:55.893Z,553.00
2023-03-18T12:30:55.556Z,548.00
2023-03-18T12:34:55.462Z,550.00
2023-03-18T12:38:55.506Z,545.00
2023-03-18T12:42:55.491Z,538.00
2023-03-18T12:46:55.375Z,539.00
2023-03-18T12:50:55.390Z,535.00
2023-03-18T12:54:55.363Z,536.00
2023-03-18T12:58:55.331Z,534.00
2023-03-18T13:02:55.401Z,523.00
2023-03-18T13:06:55.275Z,516.00
2023-03-18T13:10:55.201Z,516.00
2023-03-18T13:14:55.216Z,511.00
2023-03-18T13:18:55.151Z,510.00
2023-03-18T13:22:55.107Z,511.00
2023-03-18T13:26:55.084Z,518.00
2023-03-18T13:30:55.124Z,518.00
2023-03-18T13:34:55.124Z,517.00
2023-03-18T13:38:55.199Z,517.00
2023-03-18T13:42:55.033Z,517.00
2023-03-18T13:46:55.054Z,512.00
2023-03-18T13:50:55.793Z,512.00
2023-03-18T13:54:54.957Z,513.00
2023-03-18T13:58:54.922Z,516.00
2023-03-18T14:02:55.446Z,512.00
2023-03-18T14:06:54.914Z,509.00
2023-03-18T14:10:54.838Z,511.00
2023-03-18T14:14:54.761Z,509.00
2023-03-18T14:18:54.924Z,507.00
2023-03-18T14:22:54.919Z,511.00
2023-03-18T14:26:54.888Z,507.00
2023-03-18T14:30:54.882Z,503.00
2023-03-18T14:34:54.910Z,500.00
2023-03-18T14:38:54.776Z,501.00
2023-03-18T14:42:54.801Z,498.00
2023-03-18T14:46:54.734Z,500.00
2023-03-18T14:50:54.646Z,499.00
2023-03-18T14:54:54.618Z,500.00
2023-03-18T14:58:54.592Z,495.00
2023-03-18T15:02:54.647Z,498.00
2023-03-18T15:06:54.900Z,503.00
2023-03-18T15:10:55.889Z,502.00
2023-03-18T15:14:55.264Z,502.00
2023-03-18T15:18:55.433Z,500.00
2023-03-18T15:22:55.710Z,501.00
2023-03-18T15:26:55.893Z,503.00
2023-03-18T15:30:56.153Z,499.00
2023-03-18T15:34:56.450Z,496.00
2023-03-18T15:38:56.528Z,500.00
2023-03-18T15:42:56.795Z,495.00
2023-03-18T15:46:56.747Z,500.00
2023-03-18T15:50:56.653Z,500.00
2023-03-18T15:54:56.613Z,504.00
2023-03-18T15:58:56.588Z,500.00
2023-03-18T16:02:56.609Z,499.00
2023-03-18T16:06:56.577Z,496.00
2023-03-18T16:10:56.542Z,499.00
2023-03-18T16:14:56.418Z,496.00
2023-03-18T16:18:56.421Z,497.00
2023-03-18T16:22:56.370Z,494.00
2023-03-18T16:26:56.846Z,490.00
2023-03-18T16:30:56.988Z,487.00
2023-03-18T16:34:56.482Z,487.00
2023-03-18T16:38:56.524Z,487.00
2023-03-18T16:42:56.603Z,487.00
2023-03-18T16:46:56.476Z,490.00
2023-03-18T16:50:57.791Z,489.00
2023-03-18T16:54:56.307Z,497.00
2023-03-18T16:58:56.376Z,494.00
2023-03-18T17:02:56.336Z,494.00
2023-03-18T17:06:56.620Z,492.00
2023-03-18T17:10:56.297Z,491.00
2023-03-18T17:14:56.304Z,494.00
2023-03-18T17:18:56.189Z,494.00
2023-03-18T17:22:56.184Z,495.00
2023-03-18T17:26:56.141Z,493.00
2023-03-18T17:30:56.162Z,497.00
2023-03-18T17:34:56.083Z,497.00
2023-03-18T17:38:56.136Z,499.00
2023-03-18T17:42:56.078Z,501.00
2023-03-18T17:46:56.140Z,502.00
2023-03-18T17:50:56.006Z,502.00
2023-03-18T17:54:56.039Z,501.00
2023-03-18T17:58:56.000Z,496.00
2023-03-18T18:02:56.025Z,495.00
2023-03-18T18:06:55.900Z,493.00
2023-03-18T18:10:55.870Z,492.00
2023-03-18T18:14:55.794Z,489.00
2023-03-18T18:18:55.916Z,485.00
2023-03-18T18:22:55.959Z,486.00
2023-03-18T18:26:55.865Z,488.00
2023-03-18T18:30:55.992Z,487.00
2023-03-18T18:34:55.782Z,483.00
2023-03-18T18:38:55.759Z,485.00
2023-03-18T18:42:55.701Z,482.00
2023-03-18T18:46:55.753Z,483.00
2023-03-18T18:50:55.690Z,482.00
2023-03-18T18:54:55.635Z,479.00
2023-03-18T18:58:55.642Z,486.00
2023-03-18T19:02:56.029Z,488.00
2023-03-18T19:06:56.065Z,488.00
2023-03-18T19:10:56.336Z,485.00
2023-03-18T19:14:56.473Z,485.00
2023-03-18T19:18:56.681Z,488.00
2023-03-18T19:22:56.797Z,487.00
2023-03-18T19:26:56.971Z,483.00
2023-03-18T19:30:57.075Z,483.00
2023-03-18T19:34:57.254Z,488.00
2023-03-18T19:38:57.284Z,491.00
2023-03-18T19:42:57.350Z,490.00
2023-03-18T19:46:57.402Z,489.00
2023-03-18T19:50:57.973Z,491.00
2023-03-18T19:54:57.616Z,492.00
2023-03-18T19:58:57.736Z,496.00
2023-03-18T20:02:58.018Z,496.00
2023-03-18T20:06:57.893Z,492.00
2023-03-18T20:10:58.013Z,489.00
2023-03-18T20:14:58.126Z,497.00
2023-03-18T20:18:58.116Z,500.00
2023-03-18T20:22:58.281Z,498.00
2023-03-18T20:26:58.574Z,497.00
2023-03-18T20:30:58.613Z,498.00
2023-03-18T20:34:58.601Z,503.00
2023-03-18T20:38:58.690Z,505.00
2023-03-18T20:42:58.769Z,504.00
2023-03-18T20:46:58.886Z,503.00
2023-03-18T20:50:59.017Z,508.00
2023-03-18T20:54:59.040Z,511.00
2023-03-18T20:58:59.112Z,511.00
2023-03-18T21:02:59.239Z,509.00
2023-03-18T21:06:59.416Z,507.00
2023-03-18T21:11:01.663Z,511.00
2023-03-18T21:14:59.664Z,515.00
2023-03-18T21:18:59.749Z,516.00
2023-03-18T21:23:01.040Z,517.00
2023-03-18T21:27:05.065Z,518.00
2023-03-18T21:31:00.825Z,516.00
2023-03-18T21:34:59.830Z,522.00
2023-03-18T21:38:59.767Z,521.00
2023-03-18T21:42:59.742Z,518.00
2023-03-18T21:47:00.567Z,521.00
2023-03-18T21:50:59.640Z,524.00
2023-03-18T21:54:59.656Z,525.00
2023-03-18T21:58:59.629Z,533.00
2023-03-18T22:02:59.588Z,528.00
2023-03-18T22:06:59.563Z,527.00
2023-03-18T22:10:59.546Z,532.00
2023-03-18T22:14:59.567Z,538.00
2023-03-18T22:18:59.546Z,532.00
2023-03-18T22:22:59.559Z,534.00
2023-03-18T22:26:59.527Z,530.00
2023-03-18T22:31:01.996Z,527.00
2023-03-18T22:34:59.452Z,532.00
2023-03-18T22:38:59.445Z,534.00
2023-03-18T22:43:00.112Z,537.00
2023-03-18T22:46:59.362Z,535.00
2023-03-18T22:50:59.331Z,538.00
2023-03-18T22:54:59.279Z,544.00
2023-03-18T22:58:59.251Z,542.00
2023-03-18T23:02:59.270Z,542.00
2023-03-18T23:06:59.283Z,539.00
2023-03-18T23:10:59.200Z,547.00
2023-03-18T23:14:59.137Z,548.00
2023-03-18T23:18:59.046Z,546.00
2023-03-18T23:22:59.019Z,541.00
2023-03-18T23:26:58.989Z,539.00
2023-03-18T23:30:58.978Z,542.00
2023-03-18T23:34:58.941Z,548.00
2023-03-18T23:38:58.907Z,545.00
2023-03-18T23:42:58.855Z,541.00
2023-03-18T23:46:59.639Z,539.00
2023-03-18T23:50:59.145Z,535.00
2023-03-18T23:54:58.813Z,535.00
2023-03-18T23:58:58.725Z,533.00
